sensor_id;sensor_type;location;lat;lon;timestamp;pressure;altitude;pressure_sealevel;temperature;humidity
4012;BME280;2020;48.682;9.024;2022-09-17T00:01:01;96066.72;;;8.85;84.37
4012;BME280;2020;48.682;9.024;2022-09-17T00:03:26;96067.19;;;8.88;85.32
4012;BME280;2020;48.682;9.024;2022-09-17T00:06:06;96069.66;;;8.90;85.10
4012;BME280;2020;48.682;9.024;2022-09-17T00:08:33;96069.97;;;8.87;84.50
4012;BME280;2020;48.682;9.024;2022-09-17T00:11:11;96066.72;;;8.85;85.42
4012;BME280;2020;48.682;9.024;2022-09-17T00:13:38;96063.16;;;8.86;85.38
4012;BME280;2020;48.682;9.024;2022-09-17T00:16:04;96081.63;;;8.83;84.97
4012;BME280;2020;48.682;9.024;2022-09-17T00:18:29;96078.38;;;8.81;84.83
4012;BME280;2020;48.682;9.024;2022-09-17T00:20:54;96077.66;;;8.70;84.82
4012;BME280;2020;48.682;9.024;2022-09-17T00:23:20;96078.50;;;8.79;85.83
4012;BME280;2020;48.682;9.024;2022-09-17T00:25:45;96081.56;;;8.74;85.18
4012;BME280;2020;48.682;9.024;2022-09-17T00:28:12;96083.56;;;8.81;85.34
4012;BME280;2020;48.682;9.024;2022-09-17T00:30:39;96083.56;;;8.81;85.49
4012;BME280;2020;48.682;9.024;2022-09-17T00:33:05;96087.47;;;8.85;86.15
4012;BME280;2020;48.682;9.024;2022-09-17T00:35:30;96080.03;;;8.90;86.30
4012;BME280;2020;48.682;9.024;2022-09-17T00:37:55;96084.59;;;8.96;85.17
4012;BME280;2020;48.682;9.024;2022-09-17T00:40:21;96087.50;;;8.93;84.18
4012;BME280;2020;48.682;9.024;2022-09-17T00:42:46;96084.91;;;8.93;84.09
4012;BME280;2020;48.682;9.024;2022-09-17T00:45:12;96079.72;;;8.93;85.86
4012;BME280;2020;48.682;9.024;2022-09-17T00:47:43;96080.38;;;8.95;85.95
4012;BME280;2020;48.682;9.024;2022-09-17T00:50:22;96082.97;;;8.95;85.58
4012;BME280;2020;48.682;9.024;2022-09-17T00:53:07;96084.81;;;8.76;85.58
4012;BME280;2020;48.682;9.024;2022-09-17T00:55:36;96088.94;;;8.87;85.68
4012;BME280;2020;48.682;9.024;2022-09-17T00:58:05;96084.69;;;8.86;87.28
4012;BME280;2020;48.682;9.024;2022-09-17T01:00:31;96091.84;;;8.84;86.02
4012;BME280;2020;48.682;9.024;2022-09-17T01:02:57;96092.84;;;8.91;86.80
4012;BME280;2020;48.682;9.024;2022-09-17T01:05:48;96098.19;;;8.90;86.42
4012;BME280;2020;48.682;9.024;2022-09-17T01:14:06;96102.38;;;8.83;87.08
4012;BME280;2020;48.682;9.024;2022-09-17T01:22:08;96097.19;;;8.83;86.52
4012;BME280;2020;48.682;9.024;2022-09-17T01:30:38;96098.97;;;8.82;87.62
4012;BME280;2020;48.682;9.024;2022-09-17T01:36:19;96092.13;;;8.81;86.63
4012;BME280;2020;48.682;9.024;2022-09-17T01:39:09;96090.63;;;8.70;88.66
4012;BME280;2020;48.682;9.024;2022-09-17T01:44:18;96110.63;;;8.60;88.50
4012;BME280;2020;48.682;9.024;2022-09-17T01:46:49;96104.28;;;8.54;88.15
4012;BME280;2020;48.682;9.024;2022-09-17T01:49:18;96104.44;;;8.53;89.86
4012;BME280;2020;48.682;9.024;2022-09-17T01:51:47;96108.94;;;8.51;88.55
4012;BME280;2020;48.682;9.024;2022-09-17T01:54:27;96109.63;;;8.53;88.94
4012;BME280;2020;48.682;9.024;2022-09-17T01:57:01;96102.19;;;8.58;87.88
4012;BME280;2020;48.682;9.024;2022-09-17T01:59:33;96104.44;;;8.53;87.53
4012;BME280;2020;48.682;9.024;2022-09-17T02:02:07;96113.19;;;8.52;88.04
4012;BME280;2020;48.682;9.024;2022-09-17T02:04:43;96111.56;;;8.51;88.87
4012;BME280;2020;48.682;9.024;2022-09-17T02:07:17;96106.38;;;8.51;89.00
4012;BME280;2020;48.682;9.024;2022-09-17T02:09:56;96107.53;;;8.38;87.67
4012;BME280;2020;48.682;9.024;2022-09-17T02:12:27;96099.81;;;8.46;88.21
4012;BME280;2020;48.682;9.024;2022-09-17T02:14:56;96106.94;;;8.44;88.14
4012;BME280;2020;48.682;9.024;2022-09-17T02:17:28;96111.81;;;8.47;87.92
4012;BME280;2020;48.682;9.024;2022-09-17T02:19:56;96114.41;;;8.47;88.54
4012;BME280;2020;48.682;9.024;2022-09-17T02:22:58;96115.47;;;8.55;87.44
4012;BME280;2020;48.682;9.024;2022-09-17T02:25:35;96116.13;;;8.57;87.80
4012;BME280;2020;48.682;9.024;2022-09-17T02:28:10;96117.75;;;8.58;85.84
4012;BME280;2020;48.682;9.024;2022-09-17T02:30:39;96111.25;;;8.54;86.85
4012;BME280;2020;48.682;9.024;2022-09-17T02:33:08;96110.19;;;8.46;85.57
4012;BME280;2020;48.682;9.024;2022-09-17T02:35:35;96104.34;;;8.44;86.83
4012;BME280;2020;48.682;9.024;2022-09-17T02:38:02;96107.25;;;8.41;86.83
4012;BME280;2020;48.682;9.024;2022-09-17T02:40:30;96107.53;;;8.38;87.14
4012;BME280;2020;48.682;9.024;2022-09-17T02:43:25;96108.00;;;8.52;87.43
4012;BME280;2020;48.682;9.024;2022-09-17T02:46:09;96111.25;;;8.54;86.89
4012;BME280;2020;48.682;9.024;2022-09-17T02:54:29;96102.00;;;8.51;86.49
4012;BME280;2020;48.682;9.024;2022-09-17T02:57:06;96096.56;;;8.44;86.23
4012;BME280;2020;48.682;9.024;2022-09-17T02:59:46;96088.78;;;8.44;86.10
4012;BME280;2020;48.682;9.024;2022-09-17T03:02:35;96090.06;;;8.40;86.77
4012;BME280;2020;48.682;9.024;2022-09-17T03:05:03;96091.38;;;8.44;86.15
4012;BME280;2020;48.682;9.024;2022-09-17T03:07:30;96085.53;;;8.42;85.33
4012;BME280;2020;48.682;9.024;2022-09-17T03:09:56;96081.97;;;8.43;85.84
4012;BME280;2020;48.682;9.024;2022-09-17T03:12:22;96089.84;;;8.33;86.17
4012;BME280;2020;48.682;9.024;2022-09-17T03:14:48;96096.13;;;8.31;86.13
4012;BME280;2020;48.682;9.024;2022-09-17T03:17:13;96094.81;;;8.27;85.47
4012;BME280;2020;48.682;9.024;2022-09-17T03:19:39;96096.53;;;8.18;85.99
4012;BME280;2020;48.682;9.024;2022-09-17T03:22:04;96089.78;;;8.07;86.21
4012;BME280;2020;48.682;9.024;2022-09-17T03:24:29;96089.19;;;8.13;86.81
4012;BME280;2020;48.682;9.024;2022-09-17T03:26:55;96086.41;;;8.07;86.42
4012;BME280;2020;48.682;9.024;2022-09-17T03:29:21;96092.44;;;8.15;87.42
4012;BME280;2020;48.682;9.024;2022-09-17T03:31:46;96092.16;;;8.18;86.89
4012;BME280;2020;48.682;9.024;2022-09-17T03:34:11;96103.56;;;8.26;87.14
4012;BME280;2020;48.682;9.024;2022-09-17T03:36:37;96105.19;;;8.27;87.21
4012;BME280;2020;48.682;9.024;2022-09-17T03:39:02;96098.66;;;8.23;86.25
4012;BME280;2020;48.682;9.024;2022-09-17T03:41:28;96113.56;;;8.20;86.72
4012;BME280;2020;48.682;9.024;2022-09-17T03:43:53;96105.72;;;8.30;87.20
4012;BME280;2020;48.682;9.024;2022-09-17T03:46:19;96108.44;;;8.29;87.10
4012;BME280;2020;48.682;9.024;2022-09-17T03:48:44;96110.38;;;8.27;87.81
4012;BME280;2020;48.682;9.024;2022-09-17T03:51:10;96109.56;;;8.26;86.58
4012;BME280;2020;48.682;9.024;2022-09-17T03:53:36;96112.16;;;8.26;86.85
4012;BME280;2020;48.682;9.024;2022-09-17T03:56:03;96111.56;;;8.14;86.81
4012;BME280;2020;48.682;9.024;2022-09-17T03:58:29;96110.16;;;8.20;86.98
4012;BME280;2020;48.682;9.024;2022-09-17T04:00:54;96110.38;;;8.27;86.57
4012;BME280;2020;48.682;9.024;2022-09-17T04:03:23;96118.31;;;8.25;87.28
4012;BME280;2020;48.682;9.024;2022-09-17T04:05:49;96121.34;;;8.20;87.20
4012;BME280;2020;48.682;9.024;2022-09-17T04:08:14;96118.66;;;8.12;87.93
4012;BME280;2020;48.682;9.024;2022-09-17T04:10:39;96114.91;;;8.07;88.49
4012;BME280;2020;48.682;9.024;2022-09-17T04:13:04;96115.72;;;8.07;89.13
4012;BME280;2020;48.682;9.024;2022-09-17T04:15:30;96115.72;;;8.07;89.13
4012;BME280;2020;48.682;9.024;2022-09-17T04:17:56;96120.91;;;8.07;88.24
4012;BME280;2020;48.682;9.024;2022-09-17T04:20:24;96119.28;;;8.06;87.45
4012;BME280;2020;48.682;9.024;2022-09-17T04:22:50;96117.13;;;8.01;88.16
4012;BME280;2020;48.682;9.024;2022-09-17T04:25:16;96119.56;;;8.03;88.51
4012;BME280;2020;48.682;9.024;2022-09-17T04:27:42;96120.97;;;7.97;88.52
4012;BME280;2020;48.682;9.024;2022-09-17T04:30:08;96116.59;;;7.98;88.28
4012;BME280;2020;48.682;9.024;2022-09-17T04:32:33;96124.00;;;7.93;88.37
4012;BME280;2020;48.682;9.024;2022-09-17T04:34:58;96119.13;;;7.89;87.75
4012;BME280;2020;48.682;9.024;2022-09-17T04:37:24;96120.88;;;7.89;88.68
4012;BME280;2020;48.682;9.024;2022-09-17T04:39:50;96126.72;;;7.91;88.53
4012;BME280;2020;48.682;9.024;2022-09-17T04:42:15;96137.91;;;7.92;89.36
4012;BME280;2020;48.682;9.024;2022-09-17T04:44:40;96131.41;;;7.87;88.82
4012;BME280;2020;48.682;9.024;2022-09-17T04:47:06;96141.19;;;7.94;87.96
4012;BME280;2020;48.682;9.024;2022-09-17T04:49:31;96145.03;;;7.89;88.14
4012;BME280;2020;48.682;9.024;2022-09-17T04:51:57;96143.91;;;7.74;87.70
4012;BME280;2020;48.682;9.024;2022-09-17T04:54:22;96136.13;;;7.74;88.98
4012;BME280;2020;48.682;9.024;2022-09-17T04:56:48;96133.66;;;7.72;88.97
4012;BME280;2020;48.682;9.024;2022-09-17T04:59:14;96147.06;;;7.68;88.55
4012;BME280;2020;48.682;9.024;2022-09-17T05:01:39;96156.31;;;7.70;88.27
4012;BME280;2020;48.682;9.024;2022-09-17T05:04:04;96157.66;;;7.74;88.33
4012;BME280;2020;48.682;9.024;2022-09-17T05:06:29;96160.69;;;7.70;87.97
4012;BME280;2020;48.682;9.024;2022-09-17T05:08:55;96169.41;;;7.69;87.69
4012;BME280;2020;48.682;9.024;2022-09-17T05:11:20;96162.31;;;7.71;87.50
4012;BME280;2020;48.682;9.024;2022-09-17T05:13:45;96162.03;;;7.74;87.71
4012;BME280;2020;48.682;9.024;2022-09-17T05:16:10;96161.34;;;7.72;87.50
4012;BME280;2020;48.682;9.024;2022-09-17T05:18:36;96165.59;;;7.73;87.10
4012;BME280;2020;48.682;9.024;2022-09-17T05:21:01;96168.25;;;7.81;86.57
4012;BME280;2020;48.682;9.024;2022-09-17T05:23:26;96172.19;;;7.85;86.59
4012;BME280;2020;48.682;9.024;2022-09-17T05:25:51;96168.78;;;7.85;86.23
4012;BME280;2020;48.682;9.024;2022-09-17T05:28:17;96170.41;;;7.86;86.59
4012;BME280;2020;48.682;9.024;2022-09-17T05:30:42;96169.31;;;7.88;86.57
4012;BME280;2020;48.682;9.024;2022-09-17T05:33:08;96167.00;;;7.85;86.70
4012;BME280;2020;48.682;9.024;2022-09-17T05:35:34;96163.47;;;7.86;87.05
4012;BME280;2020;48.682;9.024;2022-09-17T05:38:04;96169.03;;;7.92;87.67
4012;BME280;2020;48.682;9.024;2022-09-17T05:40:30;96169.31;;;7.88;87.90
4012;BME280;2020;48.682;9.024;2022-09-17T05:43:02;96166.44;;;7.92;88.44
4012;BME280;2020;48.682;9.024;2022-09-17T05:45:28;96166.81;;;7.97;87.25
4012;BME280;2020;48.682;9.024;2022-09-17T05:47:58;96171.19;;;7.96;86.97
4012;BME280;2020;48.682;9.024;2022-09-17T05:50:24;96173.47;;;7.99;86.33
4012;BME280;2020;48.682;9.024;2022-09-17T05:52:51;96177.16;;;7.97;84.85
4012;BME280;2020;48.682;9.024;2022-09-17T05:55:17;96179.69;;;7.88;85.16
4012;BME280;2020;48.682;9.024;2022-09-17T05:57:42;96176.88;;;8.00;85.74
4012;BME280;2020;48.682;9.024;2022-09-17T06:00:08;96187.69;;;8.13;85.13
4012;BME280;2020;48.682;9.024;2022-09-17T06:02:34;96185.19;;;8.22;85.04
4012;BME280;2020;48.682;9.024;2022-09-17T06:05:00;96189.91;;;8.54;84.28
4012;BME280;2020;48.682;9.024;2022-09-17T06:07:26;96192.50;;;8.72;82.37
4012;BME280;2020;48.682;9.024;2022-09-17T06:09:52;96193.94;;;8.57;82.74
4012;BME280;2020;48.682;9.024;2022-09-17T06:12:17;96196.00;;;8.35;83.16
4012;BME280;2020;48.682;9.024;2022-09-17T06:14:42;96198.75;;;8.33;83.60
4012;BME280;2020;48.682;9.024;2022-09-17T06:17:08;96202.06;;;8.26;84.36
4012;BME280;2020;48.682;9.024;2022-09-17T06:19:33;96201.19;;;8.35;83.72
4012;BME280;2020;48.682;9.024;2022-09-17T06:21:58;96201.19;;;8.35;83.51
4012;BME280;2020;48.682;9.024;2022-09-17T06:24:23;96216.53;;;8.28;84.09
4012;BME280;2020;48.682;9.024;2022-09-17T06:26:50;96209.56;;;8.29;83.46
4012;BME280;2020;48.682;9.024;2022-09-17T06:29:16;96217.63;;;8.26;83.82
4012;BME280;2020;48.682;9.024;2022-09-17T06:31:41;96212.16;;;8.29;84.35
4012;BME280;2020;48.682;9.024;2022-09-17T06:34:10;96213.13;;;8.28;83.25
4012;BME280;2020;48.682;9.024;2022-09-17T06:36:35;96214.16;;;8.35;85.11
4012;BME280;2020;48.682;9.024;2022-09-17T06:39:01;96215.13;;;8.34;82.53
4012;BME280;2020;48.682;9.024;2022-09-17T06:41:26;96209.28;;;8.14;83.67
4012;BME280;2020;48.682;9.024;2022-09-17T06:43:52;96217.47;;;8.09;83.96
4012;BME280;2020;48.682;9.024;2022-09-17T06:46:18;96215.25;;;8.14;83.75
4012;BME280;2020;48.682;9.024;2022-09-17T06:48:44;96214.88;;;8.09;83.30
4012;BME280;2020;48.682;9.024;2022-09-17T06:51:10;96222.75;;;8.17;83.83
4012;BME280;2020;48.682;9.024;2022-09-17T06:53:36;96222.44;;;8.20;82.98
4012;BME280;2020;48.682;9.024;2022-09-17T06:56:03;96214.38;;;8.24;83.04
4012;BME280;2020;48.682;9.024;2022-09-17T06:58:29;96223.13;;;8.23;81.66
4012;BME280;2020;48.682;9.024;2022-09-17T07:00:59;96223.13;;;8.23;83.29
4012;BME280;2020;48.682;9.024;2022-09-17T07:03:25;96221.50;;;8.22;85.38
4012;BME280;2020;48.682;9.024;2022-09-17T07:05:50;96227.25;;;8.15;84.79
4012;BME280;2020;48.682;9.024;2022-09-17T07:08:16;96225.34;;;8.17;85.84
4012;BME280;2020;48.682;9.024;2022-09-17T07:10:42;96225.91;;;8.11;85.73
4012;BME280;2020;48.682;9.024;2022-09-17T07:13:07;96237.16;;;8.02;85.78
4012;BME280;2020;48.682;9.024;2022-09-17T07:15:32;96240.19;;;7.97;87.40
4012;BME280;2020;48.682;9.024;2022-09-17T07:17:57;96238.88;;;7.83;88.57
4012;BME280;2020;48.682;9.024;2022-09-17T07:20:23;96237.63;;;7.87;89.02
4012;BME280;2020;48.682;9.024;2022-09-17T07:22:55;96240.13;;;7.79;88.61
4012;BME280;2020;48.682;9.024;2022-09-17T07:25:21;96242.72;;;7.79;89.78
4012;BME280;2020;48.682;9.024;2022-09-17T07:27:47;96242.97;;;7.86;89.37
4012;BME280;2020;48.682;9.024;2022-09-17T07:30:12;96250.28;;;8.00;89.48
4012;BME280;2020;48.682;9.024;2022-09-17T07:32:37;96251.75;;;8.03;89.56
4012;BME280;2020;48.682;9.024;2022-09-17T07:35:03;96253.47;;;8.12;88.48
4012;BME280;2020;48.682;9.024;2022-09-17T07:37:28;96255.09;;;8.13;88.45
4012;BME280;2020;48.682;9.024;2022-09-17T07:39:54;96254.22;;;8.23;88.86
4012;BME280;2020;48.682;9.024;2022-09-17T07:42:19;96253.47;;;8.12;88.87
4012;BME280;2020;48.682;9.024;2022-09-17T07:44:45;96251.03;;;8.11;89.48
4012;BME280;2020;48.682;9.024;2022-09-17T07:47:11;96251.84;;;8.11;90.55
4012;BME280;2020;48.682;9.024;2022-09-17T07:49:36;96256.94;;;8.03;90.63
4012;BME280;2020;48.682;9.024;2022-09-17T07:52:01;96261.72;;;7.98;92.39
4012;BME280;2020;48.682;9.024;2022-09-17T07:54:31;96262.13;;;8.03;93.83
4012;BME280;2020;48.682;9.024;2022-09-17T07:56:56;96270.19;;;8.00;92.61
4012;BME280;2020;48.682;9.024;2022-09-17T07:59:21;96269.69;;;7.86;94.87
4012;BME280;2020;48.682;9.024;2022-09-17T08:01:47;96277.09;;;7.81;94.53
4012;BME280;2020;48.682;9.024;2022-09-17T08:04:12;96276.78;;;7.84;95.04
4012;BME280;2020;48.682;9.024;2022-09-17T08:06:38;96284.56;;;7.84;94.15
4012;BME280;2020;48.682;9.024;2022-09-17T08:09:05;96283.81;;;8.02;95.52
4012;BME280;2020;48.682;9.024;2022-09-17T08:11:31;96284.00;;;8.18;96.55
4012;BME280;2020;48.682;9.024;2022-09-17T08:13:56;96287.16;;;8.12;93.58
4012;BME280;2020;48.682;9.024;2022-09-17T08:16:22;96287.56;;;8.17;95.33
4012;BME280;2020;48.682;9.024;2022-09-17T08:18:53;96285.91;;;8.16;94.19
4012;BME280;2020;48.682;9.024;2022-09-17T08:21:19;96294.09;;;8.22;94.56
4012;BME280;2020;48.682;9.024;2022-09-17T08:23:44;96289.75;;;8.12;93.42
4012;BME280;2020;48.682;9.024;2022-09-17T08:26:17;96288.13;;;8.11;95.38
4012;BME280;2020;48.682;9.024;2022-09-17T08:28:46;96295.13;;;8.29;95.47
4012;BME280;2020;48.682;9.024;2022-09-17T08:31:14;96287.72;;;8.34;95.80
4012;BME280;2020;48.682;9.024;2022-09-17T08:33:40;96291.00;;;8.36;93.82
4012;BME280;2020;48.682;9.024;2022-09-17T08:36:07;96303.50;;;8.51;94.65
4012;BME280;2020;48.682;9.024;2022-09-17T08:38:34;96296.38;;;8.53;92.94
4012;BME280;2020;48.682;9.024;2022-09-17T08:46:10;96294.63;;;8.53;89.95
4012;BME280;2020;48.682;9.024;2022-09-17T08:48:41;96289.28;;;8.55;91.52
4012;BME280;2020;48.682;9.024;2022-09-17T08:56:32;96300.72;;;8.98;92.21
4012;BME280;2020;48.682;9.024;2022-09-17T09:02:01;96304.03;;;8.90;87.41
4012;BME280;2020;48.682;9.024;2022-09-17T09:04:42;96298.50;;;9.03;88.71
4012;BME280;2020;48.682;9.024;2022-09-17T09:07:18;96295.97;;;9.12;85.95
4012;BME280;2020;48.682;9.024;2022-09-17T09:09:50;96299.16;;;9.05;84.68
4012;BME280;2020;48.682;9.024;2022-09-17T09:12:23;96304.41;;;9.14;88.91
4012;BME280;2020;48.682;9.024;2022-09-17T09:14:54;96306.84;;;9.15;86.51
4012;BME280;2020;48.682;9.024;2022-09-17T09:17:21;96298.81;;;9.27;87.19
4012;BME280;2020;48.682;9.024;2022-09-17T09:19:51;96298.31;;;9.23;84.81
4012;BME280;2020;48.682;9.024;2022-09-17T09:22:44;96298.00;;;9.26;85.61
4012;BME280;2020;48.682;9.024;2022-09-17T09:28:02;96301.88;;;9.22;84.25
4012;BME280;2020;48.682;9.024;2022-09-17T09:30:38;96307.06;;;9.22;85.06
4012;BME280;2020;48.682;9.024;2022-09-17T09:33:26;96300.53;;;9.18;82.21
4012;BME280;2020;48.682;9.024;2022-09-17T09:35:51;96293.44;;;9.20;83.15
4012;BME280;2020;48.682;9.024;2022-09-17T09:38:33;96303.00;;;9.46;81.37
4012;BME280;2020;48.682;9.024;2022-09-17T09:41:09;96298.28;;;9.68;80.80
4012;BME280;2020;48.682;9.024;2022-09-17T09:49:23;96291.75;;;9.63;80.34
4012;BME280;2020;48.682;9.024;2022-09-17T09:57:12;96307.50;;;9.35;82.13
4012;BME280;2020;48.682;9.024;2022-09-17T09:59:39;96311.78;;;9.45;80.07
4012;BME280;2020;48.682;9.024;2022-09-17T10:02:06;96309.31;;;9.70;80.14
4012;BME280;2020;48.682;9.024;2022-09-17T10:04:31;96302.59;;;9.85;81.10
4012;BME280;2020;48.682;9.024;2022-09-17T10:07:04;96304.56;;;9.91;79.26
4012;BME280;2020;48.682;9.024;2022-09-17T10:09:30;96305.91;;;9.95;78.13
4012;BME280;2020;48.682;9.024;2022-09-17T10:12:02;96309.47;;;9.94;75.65
4012;BME280;2020;48.682;9.024;2022-09-17T10:14:31;96305.22;;;9.93;77.40
4012;BME280;2020;48.682;9.024;2022-09-17T10:17:10;96308.22;;;9.99;79.89
4012;BME280;2020;48.682;9.024;2022-09-17T10:19:39;96305.28;;;10.02;77.34
4012;BME280;2020;48.682;9.024;2022-09-17T10:22:18;96313.53;;;9.97;76.63
4012;BME280;2020;48.682;9.024;2022-09-17T10:24:45;96309.63;;;10.28;78.53
4012;BME280;2020;48.682;9.024;2022-09-17T10:27:16;96308.41;;;10.48;73.30
4012;BME280;2020;48.682;9.024;2022-09-17T10:29:44;96310.41;;;10.63;73.53
4012;BME280;2020;48.682;9.024;2022-09-17T10:32:19;96302.28;;;10.91;73.31
4012;BME280;2020;48.682;9.024;2022-09-17T10:35:02;96304.28;;;11.30;72.22
4012;BME280;2020;48.682;9.024;2022-09-17T10:37:42;96305.25;;;11.46;70.22
4012;BME280;2020;48.682;9.024;2022-09-17T10:43:17;96289.19;;;11.82;68.92
4012;BME280;2020;48.682;9.024;2022-09-17T10:45:45;96284.56;;;12.09;68.61
4012;BME280;2020;48.682;9.024;2022-09-17T10:48:20;96284.13;;;12.37;66.27
4012;BME280;2020;48.682;9.024;2022-09-17T10:50:51;96288.19;;;12.71;71.31
4012;BME280;2020;48.682;9.024;2022-09-17T10:53:18;96291.44;;;12.73;67.52
4012;BME280;2020;48.682;9.024;2022-09-17T11:01:47;96288.16;;;11.99;66.81
4012;BME280;2020;48.682;9.024;2022-09-17T11:04:25;96287.09;;;11.77;67.26
4012;BME280;2020;48.682;9.024;2022-09-17T11:07:32;96282.03;;;11.84;64.19
4012;BME280;2020;48.682;9.024;2022-09-17T11:13:14;96270.72;;;11.44;64.76
4012;BME280;2020;48.682;9.024;2022-09-17T11:18:31;96268.69;;;11.79;67.65
4012;BME280;2020;48.682;9.024;2022-09-17T11:29:33;96251.88;;;12.84;62.02
4012;BME280;2020;48.682;9.024;2022-09-17T11:37:30;96250.94;;;12.77;58.16
4012;BME280;2020;48.682;9.024;2022-09-17T11:40:02;96246.50;;;13.01;62.81
4012;BME280;2020;48.682;9.024;2022-09-17T11:42:35;96244.44;;;13.50;60.74
4012;BME280;2020;48.682;9.024;2022-09-17T11:45:23;96249.31;;;13.53;60.39
4012;BME280;2020;48.682;9.024;2022-09-17T11:47:59;96246.44;;;13.78;60.41
4012;BME280;2020;48.682;9.024;2022-09-17T11:50:31;96245.19;;;14.03;58.92
4012;BME280;2020;48.682;9.024;2022-09-17T11:53:03;96245.41;;;14.24;60.79
4012;BME280;2020;48.682;9.024;2022-09-17T11:55:36;96256.97;;;14.29;54.08
4012;BME280;2020;48.682;9.024;2022-09-17T11:58:13;96244.16;;;14.56;56.77
4012;BME280;2020;48.682;9.024;2022-09-17T12:00:45;96249.41;;;15.00;57.20
4012;BME280;2020;48.682;9.024;2022-09-17T12:03:41;96242.56;;;14.99;56.40
4012;BME280;2020;48.682;9.024;2022-09-17T12:06:12;96235.31;;;14.79;54.95
4012;BME280;2020;48.682;9.024;2022-09-17T12:09:08;96219.56;;;14.36;53.78
4012;BME280;2020;48.682;9.024;2022-09-17T12:11:49;96226.59;;;13.98;58.78
4012;BME280;2020;48.682;9.024;2022-09-17T12:14:23;96230.38;;;13.81;57.00
4012;BME280;2020;48.682;9.024;2022-09-17T12:16:57;96237.13;;;13.90;55.52
4012;BME280;2020;48.682;9.024;2022-09-17T12:19:52;96228.22;;;13.99;53.45
4012;BME280;2020;48.682;9.024;2022-09-17T12:22:30;96228.41;;;13.53;54.52
4012;BME280;2020;48.682;9.024;2022-09-17T12:24:59;96230.63;;;13.41;56.83
4012;BME280;2020;48.682;9.024;2022-09-17T12:30:08;96226.56;;;13.38;55.89
4012;BME280;2020;48.682;9.024;2022-09-17T12:41:19;96229.69;;;13.19;57.51
4012;BME280;2020;48.682;9.024;2022-09-17T12:43:59;96225.09;;;13.21;57.18
4012;BME280;2020;48.682;9.024;2022-09-17T12:52:35;96227.84;;;12.66;64.29
4012;BME280;2020;48.682;9.024;2022-09-17T12:55:35;96227.59;;;12.52;67.69
4012;BME280;2020;48.682;9.024;2022-09-17T13:01:01;96231.91;;;12.13;67.75
4012;BME280;2020;48.682;9.024;2022-09-17T13:03:39;96242.16;;;12.15;69.75
4012;BME280;2020;48.682;9.024;2022-09-17T13:11:44;96315.16;;;10.33;80.74
4012;BME280;2020;48.682;9.024;2022-09-17T13:17:11;96297.50;;;10.02;84.84
4012;BME280;2020;48.682;9.024;2022-09-17T13:20:02;96297.75;;;9.90;86.22
4012;BME280;2020;48.682;9.024;2022-09-17T13:22:44;96288.31;;;9.89;87.48
4012;BME280;2020;48.682;9.024;2022-09-17T13:25:11;96292.28;;;10.02;88.12
4012;BME280;2020;48.682;9.024;2022-09-17T13:27:38;96286.84;;;10.21;88.87
4012;BME280;2020;48.682;9.024;2022-09-17T13:30:05;96282.97;;;10.34;87.02
4012;BME280;2020;48.682;9.024;2022-09-17T13:40:35;96271.38;;;11.21;82.48
4012;BME280;2020;48.682;9.024;2022-09-17T13:45:34;96259.84;;;11.88;84.24
4012;BME280;2020;48.682;9.024;2022-09-17T13:48:23;96265.44;;;11.77;79.78
4012;BME280;2020;48.682;9.024;2022-09-17T13:50:50;96269.19;;;12.22;83.65
4012;BME280;2020;48.682;9.024;2022-09-17T13:53:19;96262.59;;;12.35;76.99
4012;BME280;2020;48.682;9.024;2022-09-17T13:55:55;96266.44;;;12.47;80.25
4012;BME280;2020;48.682;9.024;2022-09-17T13:58:23;96253.22;;;12.17;79.73
4012;BME280;2020;48.682;9.024;2022-09-17T14:01:00;96251.22;;;12.27;77.40
4012;BME280;2020;48.682;9.024;2022-09-17T14:24:46;96255.56;;;12.67;69.27
4012;BME280;2020;48.682;9.024;2022-09-17T14:30:33;96248.69;;;12.11;71.25
4012;BME280;2020;48.682;9.024;2022-09-17T14:33:13;96245.78;;;11.97;70.58
4012;BME280;2020;48.682;9.024;2022-09-17T14:35:44;96251.72;;;11.83;70.90
4012;BME280;2020;48.682;9.024;2022-09-17T14:38:14;96257.25;;;11.88;69.79
4012;BME280;2020;48.682;9.024;2022-09-17T14:40:45;96249.00;;;12.16;70.37
4012;BME280;2020;48.682;9.024;2022-09-17T14:43:37;96244.94;;;12.68;67.97
4012;BME280;2020;48.682;9.024;2022-09-17T14:46:06;96242.66;;;12.42;66.84
4012;BME280;2020;48.682;9.024;2022-09-17T14:48:34;96234.22;;;12.32;70.27
4012;BME280;2020;48.682;9.024;2022-09-17T14:53:41;96236.56;;;12.26;69.45
4012;BME280;2020;48.682;9.024;2022-09-17T14:56:09;96234.63;;;12.20;68.55
4012;BME280;2020;48.682;9.024;2022-09-17T14:58:40;96230.34;;;12.27;69.90
4012;BME280;2020;48.682;9.024;2022-09-17T15:01:27;96220.53;;;12.29;69.68
4012;BME280;2020;48.682;9.024;2022-09-17T15:06:36;96229.50;;;12.04;68.82
4012;BME280;2020;48.682;9.024;2022-09-17T15:09:01;96245.78;;;11.97;67.36
4012;BME280;2020;48.682;9.024;2022-09-17T15:11:27;96248.44;;;11.89;66.98
4012;BME280;2020;48.682;9.024;2022-09-17T15:13:52;96249.72;;;11.93;67.80
4012;BME280;2020;48.682;9.024;2022-09-17T15:16:25;96248.75;;;11.94;66.83
4012;BME280;2020;48.682;9.024;2022-09-17T15:18:53;96243.03;;;12.07;67.15
4012;BME280;2020;48.682;9.024;2022-09-17T15:21:38;96243.19;;;12.06;66.51
4012;BME280;2020;48.682;9.024;2022-09-17T15:27:07;96246.13;;;11.94;68.00
4012;BME280;2020;48.682;9.024;2022-09-17T15:29:35;96246.66;;;11.81;65.97
4012;BME280;2020;48.682;9.024;2022-09-17T15:32:04;96250.28;;;11.72;68.33
4012;BME280;2020;48.682;9.024;2022-09-17T15:34:30;96252.72;;;11.74;69.05
4012;BME280;2020;48.682;9.024;2022-09-17T15:37:15;96256.97;;;11.75;68.34
4012;BME280;2020;48.682;9.024;2022-09-17T15:39:46;96258.28;;;11.62;68.67
4012;BME280;2020;48.682;9.024;2022-09-17T15:42:25;96251.16;;;11.56;70.52
4012;BME280;2020;48.682;9.024;2022-09-17T15:44:51;96261.25;;;11.51;68.80
4012;BME280;2020;48.682;9.024;2022-09-17T15:47:48;96254.75;;;11.47;70.22
4012;BME280;2020;48.682;9.024;2022-09-17T15:52:44;96258.00;;;11.49;69.83
4012;BME280;2020;48.682;9.024;2022-09-17T15:55:30;96247.88;;;11.62;69.70
4012;BME280;2020;48.682;9.024;2022-09-17T15:57:59;96250.16;;;11.57;68.67
4012;BME280;2020;48.682;9.024;2022-09-17T16:00:25;96256.38;;;11.48;68.05
4012;BME280;2020;48.682;9.024;2022-09-17T16:02:50;96255.41;;;11.40;68.58
4012;BME280;2020;48.682;9.024;2022-09-17T16:07:43;96254.13;;;11.20;69.36
4012;BME280;2020;48.682;9.024;2022-09-17T16:10:09;96258.84;;;11.24;69.34
4012;BME280;2020;48.682;9.024;2022-09-17T16:12:35;96262.91;;;11.35;70.25
4012;BME280;2020;48.682;9.024;2022-09-17T16:15:01;96256.41;;;11.31;68.78
4012;BME280;2020;48.682;9.024;2022-09-17T16:17:30;96256.06;;;11.34;68.33
4012;BME280;2020;48.682;9.024;2022-09-17T16:20:25;96258.50;;;11.36;68.76
4012;BME280;2020;48.682;9.024;2022-09-17T16:22:51;96254.41;;;11.50;69.78
4012;BME280;2020;48.682;9.024;2022-09-17T16:25:24;96252.78;;;11.57;69.29
4012;BME280;2020;48.682;9.024;2022-09-17T16:27:55;96256.22;;;11.41;67.03